sensor_id;sensor_type;location;lat;lon;timestamp;P1;durP1;ratioP1;P2;durP2;ratioP2
20142;SDS011;10509;46.476;7.134;2023-09-08T00:00:57;6.00;;;5.60;;
20142;SDS011;10509;46.476;7.134;2023-09-08T00:03:23;5.28;;;4.97;;
20142;SDS011;10509;46.476;7.134;2023-09-08T00:05:49;5.70;;;5.40;;
20142;SDS011;10509;46.476;7.134;2023-09-08T00:08:15;5.70;;;5.30;;
20142;SDS011;10509;46.476;7.134;2023-09-08T00:10:41;5.33;;;4.97;;
20142;SDS011;10509;46.476;7.134;2023-09-08T00:13:07;5.73;;;5.23;;
20142;SDS011;10509;46.476;7.134;2023-09-08T00:15:33;5.43;;;5.03;;
20142;SDS011;10509;46.476;7.134;2023-09-08T00:18:00;6.53;;;5.25;;
20142;SDS011;10509;46.476;7.134;2023-09-08T00:20:26;5.70;;;5.30;;
20142;SDS011;10509;46.476;7.134;2023-09-08T00:22:52;5.82;;;5.43;;
20142;SDS011;10509;46.476;7.134;2023-09-08T00:25:18;5.60;;;5.30;;
20142;SDS011;10509;46.476;7.134;2023-09-08T00:27:44;5.70;;;5.28;;
20142;SDS011;10509;46.476;7.134;2023-09-08T00:30:10;5.53;;;5.23;;
20142;SDS011;10509;46.476;7.134;2023-09-08T00:32:36;5.47;;;5.07;;
20142;SDS011;10509;46.476;7.134;2023-09-08T00:35:05;6.20;;;5.70;;
20142;SDS011;10509;46.476;7.134;2023-09-08T00:37:31;6.13;;;5.73;;
20142;SDS011;10509;46.476;7.134;2023-09-08T00:39:57;5.90;;;5.40;;
20142;SDS011;10509;46.476;7.134;2023-09-08T00:42:23;6.43;;;5.37;;
20142;SDS011;10509;46.476;7.134;2023-09-08T00:44:49;5.53;;;5.13;;
20142;SDS011;10509;46.476;7.134;2023-09-08T00:47:15;5.63;;;5.30;;
20142;SDS011;10509;46.476;7.134;2023-09-08T00:49:41;5.50;;;5.00;;
20142;SDS011;10509;46.476;7.134;2023-09-08T00:52:07;5.83;;;5.43;;
20142;SDS011;10509;46.476;7.134;2023-09-08T00:54:33;5.77;;;5.37;;
20142;SDS011;10509;46.476;7.134;2023-09-08T00:57:01;8.40;;;6.03;;
20142;SDS011;10509;46.476;7.134;2023-09-08T00:59:28;6.40;;;5.23;;
20142;SDS011;10509;46.476;7.134;2023-09-08T01:01:55;5.60;;;5.30;;
20142;SDS011;10509;46.476;7.134;2023-09-08T01:04:21;5.60;;;5.27;;
20142;SDS011;10509;46.476;7.134;2023-09-08T01:06:47;6.33;;;5.93;;
20142;SDS011;10509;46.476;7.134;2023-09-08T01:09:13;5.40;;;5.10;;
20142;SDS011;10509;46.476;7.134;2023-09-08T01:11:40;5.80;;;5.40;;
20142;SDS011;10509;46.476;7.134;2023-09-08T01:14:07;5.57;;;5.17;;
20142;SDS011;10509;46.476;7.134;2023-09-08T01:16:33;5.67;;;5.30;;
20142;SDS011;10509;46.476;7.134;2023-09-08T01:18:59;5.53;;;5.23;;
20142;SDS011;10509;46.476;7.134;2023-09-08T01:26:40;6.40;;;6.00;;
20142;SDS011;10509;46.476;7.134;2023-09-08T01:29:07;5.73;;;5.33;;
20142;SDS011;10509;46.476;7.134;2023-09-08T01:31:34;5.97;;;5.47;;
20142;SDS011;10509;46.476;7.134;2023-09-08T01:34:01;5.93;;;5.60;;
20142;SDS011;10509;46.476;7.134;2023-09-08T01:36:31;6.53;;;6.13;;
20142;SDS011;10509;46.476;7.134;2023-09-08T01:38:57;6.40;;;5.90;;
20142;SDS011;10509;46.476;7.134;2023-09-08T01:41:23;7.67;;;6.27;;
20142;SDS011;10509;46.476;7.134;2023-09-08T01:43:49;7.67;;;6.40;;
20142;SDS011;10509;46.476;7.134;2023-09-08T01:46:15;6.37;;;5.97;;
20142;SDS011;10509;46.476;7.134;2023-09-08T01:48:41;6.50;;;6.10;;
20142;SDS011;10509;46.476;7.134;2023-09-08T01:51:07;6.53;;;5.93;;
20142;SDS011;10509;46.476;7.134;2023-09-08T01:53:33;6.60;;;6.20;;
20142;SDS011;10509;46.476;7.134;2023-09-08T01:55:59;7.33;;;6.03;;
20142;SDS011;10509;46.476;7.134;2023-09-08T01:58:25;6.10;;;5.53;;
20142;SDS011;10509;46.476;7.134;2023-09-08T02:00:51;6.40;;;6.00;;
20142;SDS011;10509;46.476;7.134;2023-09-08T02:03:17;5.83;;;5.43;;
20142;SDS011;10509;46.476;7.134;2023-09-08T02:05:44;6.17;;;5.77;;
20142;SDS011;10509;46.476;7.134;2023-09-08T02:08:10;6.40;;;5.87;;
20142;SDS011;10509;46.476;7.134;2023-09-08T02:10:39;6.10;;;5.60;;
20142;SDS011;10509;46.476;7.134;2023-09-08T02:13:05;6.33;;;5.93;;
20142;SDS011;10509;46.476;7.134;2023-09-08T02:15:34;6.23;;;5.83;;
20142;SDS011;10509;46.476;7.134;2023-09-08T02:18:00;6.77;;;6.20;;
20142;SDS011;10509;46.476;7.134;2023-09-08T02:20:26;6.57;;;5.97;;
20142;SDS011;10509;46.476;7.134;2023-09-08T02:22:53;6.60;;;6.10;;
20142;SDS011;10509;46.476;7.134;2023-09-08T02:25:19;6.67;;;6.27;;
20142;SDS011;10509;46.476;7.134;2023-09-08T02:27:45;6.30;;;5.90;;
20142;SDS011;10509;46.476;7.134;2023-09-08T02:30:11;6.33;;;5.70;;
20142;SDS011;10509;46.476;7.134;2023-09-08T02:32:37;6.00;;;5.63;;
20142;SDS011;10509;46.476;7.134;2023-09-08T02:35:03;6.43;;;5.93;;
20142;SDS011;10509;46.476;7.134;2023-09-08T02:37:29;6.30;;;5.90;;
20142;SDS011;10509;46.476;7.134;2023-09-08T02:39:55;6.37;;;5.97;;
20142;SDS011;10509;46.476;7.134;2023-09-08T02:42:21;6.53;;;6.10;;
20142;SDS011;10509;46.476;7.134;2023-09-08T02:44:47;6.40;;;5.80;;
20142;SDS011;10509;46.476;7.134;2023-09-08T02:47:13;6.20;;;5.80;;
20142;SDS011;10509;46.476;7.134;2023-09-08T02:49:39;7.20;;;6.60;;
20142;SDS011;10509;46.476;7.134;2023-09-08T02:52:05;7.03;;;6.60;;
20142;SDS011;10509;46.476;7.134;2023-09-08T02:54:31;6.37;;;6.07;;
20142;SDS011;10509;46.476;7.134;2023-09-08T02:56:57;6.30;;;5.80;;
20142;SDS011;10509;46.476;7.134;2023-09-08T02:59:23;6.30;;;5.80;;
20142;SDS011;10509;46.476;7.134;2023-09-08T03:01:49;5.77;;;5.37;;
20142;SDS011;10509;46.476;7.134;2023-09-08T03:04:15;6.60;;;6.20;;
20142;SDS011;10509;46.476;7.134;2023-09-08T03:06:41;6.60;;;6.20;;
20142;SDS011;10509;46.476;7.134;2023-09-08T03:09:07;6.23;;;5.83;;
20142;SDS011;10509;46.476;7.134;2023-09-08T03:11:33;6.93;;;6.17;;
20142;SDS011;10509;46.476;7.134;2023-09-08T03:13:59;6.40;;;5.90;;
20142;SDS011;10509;46.476;7.134;2023-09-08T03:16:25;7.33;;;6.63;;
20142;SDS011;10509;46.476;7.134;2023-09-08T03:18:51;6.20;;;5.70;;
20142;SDS011;10509;46.476;7.134;2023-09-08T03:21:17;6.70;;;6.30;;
20142;SDS011;10509;46.476;7.134;2023-09-08T03:23:43;6.67;;;6.07;;
20142;SDS011;10509;46.476;7.134;2023-09-08T03:26:09;7.63;;;7.13;;
20142;SDS011;10509;46.476;7.134;2023-09-08T03:28:36;6.70;;;6.30;;
20142;SDS011;10509;46.476;7.134;2023-09-08T03:31:02;7.90;;;7.40;;
20142;SDS011;10509;46.476;7.134;2023-09-08T03:33:28;8.10;;;7.30;;
20142;SDS011;10509;46.476;7.134;2023-09-08T03:35:54;7.43;;;6.80;;
20142;SDS011;10509;46.476;7.134;2023-09-08T03:38:20;6.90;;;6.50;;
20142;SDS011;10509;46.476;7.134;2023-09-08T03:40:47;6.63;;;6.13;;
20142;SDS011;10509;46.476;7.134;2023-09-08T03:43:13;6.90;;;6.53;;
20142;SDS011;10509;46.476;7.134;2023-09-08T03:45:39;7.03;;;6.53;;
20142;SDS011;10509;46.476;7.134;2023-09-08T03:48:05;7.23;;;6.83;;
20142;SDS011;10509;46.476;7.134;2023-09-08T03:50:31;6.87;;;6.47;;
20142;SDS011;10509;46.476;7.134;2023-09-08T03:52:57;6.73;;;6.23;;
20142;SDS011;10509;46.476;7.134;2023-09-08T03:55:23;6.70;;;6.23;;
20142;SDS011;10509;46.476;7.134;2023-09-08T03:57:49;6.97;;;6.50;;
20142;SDS011;10509;46.476;7.134;2023-09-08T04:00:15;6.53;;;6.13;;
20142;SDS011;10509;46.476;7.134;2023-09-08T04:02:47;7.30;;;6.83;;
20142;SDS011;10509;46.476;7.134;2023-09-08T04:05:13;7.23;;;6.83;;
20142;SDS011;10509;46.476;7.134;2023-09-08T04:07:39;7.17;;;6.67;;
20142;SDS011;10509;46.476;7.134;2023-09-08T04:10:05;7.57;;;7.07;;
20142;SDS011;10509;46.476;7.134;2023-09-08T04:12:31;6.87;;;6.37;;
20142;SDS011;10509;46.476;7.134;2023-09-08T04:14:57;6.67;;;6.27;;
20142;SDS011;10509;46.476;7.134;2023-09-08T04:17:23;7.13;;;6.63;;
20142;SDS011;10509;46.476;7.134;2023-09-08T04:19:49;7.57;;;6.60;;
20142;SDS011;10509;46.476;7.134;2023-09-08T04:22:15;7.57;;;7.10;;
20142;SDS011;10509;46.476;7.134;2023-09-08T04:24:41;6.70;;;6.20;;
20142;SDS011;10509;46.476;7.134;2023-09-08T04:27:07;7.27;;;6.77;;
20142;SDS011;10509;46.476;7.134;2023-09-08T04:29:36;7.57;;;7.07;;
20142;SDS011;10509;46.476;7.134;2023-09-08T04:32:02;7.57;;;6.93;;
20142;SDS011;10509;46.476;7.134;2023-09-08T04:34:37;7.13;;;6.67;;
20142;SDS011;10509;46.476;7.134;2023-09-08T04:37:03;7.23;;;6.73;;
20142;SDS011;10509;46.476;7.134;2023-09-08T04:39:29;6.97;;;6.57;;
20142;SDS011;10509;46.476;7.134;2023-09-08T04:41:55;7.37;;;6.93;;
20142;SDS011;10509;46.476;7.134;2023-09-08T04:44:21;7.53;;;6.93;;
20142;SDS011;10509;46.476;7.134;2023-09-08T04:46:47;7.43;;;7.03;;
20142;SDS011;10509;46.476;7.134;2023-09-08T04:49:13;7.57;;;7.00;;
20142;SDS011;10509;46.476;7.134;2023-09-08T04:51:39;7.77;;;7.27;;
20142;SDS011;10509;46.476;7.134;2023-09-08T04:54:06;7.13;;;6.63;;
20142;SDS011;10509;46.476;7.134;2023-09-08T04:56:32;7.23;;;6.73;;
20142;SDS011;10509;46.476;7.134;2023-09-08T04:58:58;7.27;;;6.77;;
20142;SDS011;10509;46.476;7.134;2023-09-08T05:01:25;8.33;;;7.63;;
20142;SDS011;10509;46.476;7.134;2023-09-08T05:03:52;7.00;;;6.47;;
20142;SDS011;10509;46.476;7.134;2023-09-08T05:06:18;7.20;;;6.60;;
20142;SDS011;10509;46.476;7.134;2023-09-08T05:08:44;7.37;;;6.40;;
20142;SDS011;10509;46.476;7.134;2023-09-08T05:11:10;7.77;;;6.93;;
20142;SDS011;10509;46.476;7.134;2023-09-08T05:13:36;7.00;;;6.60;;
20142;SDS011;10509;46.476;7.134;2023-09-08T05:16:02;7.40;;;6.70;;
20142;SDS011;10509;46.476;7.134;2023-09-08T05:18:39;7.10;;;6.60;;
20142;SDS011;10509;46.476;7.134;2023-09-08T05:21:05;7.30;;;6.77;;
20142;SDS011;10509;46.476;7.134;2023-09-08T05:23:31;8.33;;;7.37;;
20142;SDS011;10509;46.476;7.134;2023-09-08T05:25:58;8.23;;;7.73;;
20142;SDS011;10509;46.476;7.134;2023-09-08T05:28:24;7.13;;;6.63;;
20142;SDS011;10509;46.476;7.134;2023-09-08T05:30:53;8.40;;;7.80;;
20142;SDS011;10509;46.476;7.134;2023-09-08T05:33:19;8.00;;;7.40;;
20142;SDS011;10509;46.476;7.134;2023-09-08T05:35:45;8.17;;;7.23;;
20142;SDS011;10509;46.476;7.134;2023-09-08T05:38:12;7.73;;;7.30;;
20142;SDS011;10509;46.476;7.134;2023-09-08T05:40:38;8.50;;;6.77;;
20142;SDS011;10509;46.476;7.134;2023-09-08T05:43:04;10.30;;;9.43;;
20142;SDS011;10509;46.476;7.134;2023-09-08T05:45:33;10.37;;;9.70;;
20142;SDS011;10509;46.476;7.134;2023-09-08T05:47:59;8.20;;;7.70;;
20142;SDS011;10509;46.476;7.134;2023-09-08T05:50:25;9.23;;;7.50;;
20142;SDS011;10509;46.476;7.134;2023-09-08T05:52:52;11.83;;;10.67;;
20142;SDS011;10509;46.476;7.134;2023-09-08T05:55:18;9.03;;;8.17;;
20142;SDS011;10509;46.476;7.134;2023-09-08T05:57:44;8.43;;;7.73;;
20142;SDS011;10509;46.476;7.134;2023-09-08T06:00:10;7.17;;;6.70;;
20142;SDS011;10509;46.476;7.134;2023-09-08T06:02:37;8.90;;;8.10;;
20142;SDS011;10509;46.476;7.134;2023-09-08T06:05:03;10.00;;;8.40;;
20142;SDS011;10509;46.476;7.134;2023-09-08T06:07:30;8.10;;;7.47;;
20142;SDS011;10509;46.476;7.134;2023-09-08T06:09:56;7.40;;;7.00;;
20142;SDS011;10509;46.476;7.134;2023-09-08T06:12:22;9.20;;;8.20;;
20142;SDS011;10509;46.476;7.134;2023-09-08T06:14:48;7.60;;;6.90;;
20142;SDS011;10509;46.476;7.134;2023-09-08T06:17:14;8.33;;;7.73;;
20142;SDS011;10509;46.476;7.134;2023-09-08T06:19:40;7.23;;;6.73;;
20142;SDS011;10509;46.476;7.134;2023-09-08T06:22:06;7.67;;;7.17;;
20142;SDS011;10509;46.476;7.134;2023-09-08T06:24:32;8.00;;;7.43;;
20142;SDS011;10509;46.476;7.134;2023-09-08T06:26:58;7.67;;;7.17;;
20142;SDS011;10509;46.476;7.134;2023-09-08T06:29:24;7.60;;;7.10;;
20142;SDS011;10509;46.476;7.134;2023-09-08T06:31:50;7.47;;;6.97;;
20142;SDS011;10509;46.476;7.134;2023-09-08T06:34:16;6.93;;;6.43;;
20142;SDS011;10509;46.476;7.134;2023-09-08T06:36:46;7.00;;;6.60;;
20142;SDS011;10509;46.476;7.134;2023-09-08T06:39:12;7.50;;;6.90;;
20142;SDS011;10509;46.476;7.134;2023-09-08T06:41:38;7.17;;;6.63;;
20142;SDS011;10509;46.476;7.134;2023-09-08T06:44:05;7.63;;;7.13;;
20142;SDS011;10509;46.476;7.134;2023-09-08T06:46:31;7.40;;;6.90;;
20142;SDS011;10509;46.476;7.134;2023-09-08T06:48:57;7.53;;;6.93;;
20142;SDS011;10509;46.476;7.134;2023-09-08T06:51:23;9.17;;;7.60;;
20142;SDS011;10509;46.476;7.134;2023-09-08T06:53:56;7.90;;;6.90;;
20142;SDS011;10509;46.476;7.134;2023-09-08T06:56:22;8.27;;;7.73;;
20142;SDS011;10509;46.476;7.134;2023-09-08T06:58:48;7.93;;;7.43;;
20142;SDS011;10509;46.476;7.134;2023-09-08T07:01:14;10.23;;;8.10;;
20142;SDS011;10509;46.476;7.134;2023-09-08T07:03:40;9.00;;;7.03;;
20142;SDS011;10509;46.476;7.134;2023-09-08T07:06:06;7.60;;;7.00;;
20142;SDS011;10509;46.476;7.134;2023-09-08T07:08:32;7.77;;;7.20;;
20142;SDS011;10509;46.476;7.134;2023-09-08T07:10:58;7.33;;;6.90;;
20142;SDS011;10509;46.476;7.134;2023-09-08T07:13:24;7.90;;;7.20;;
20142;SDS011;10509;46.476;7.134;2023-09-08T07:15:50;9.37;;;7.17;;
20142;SDS011;10509;46.476;7.134;2023-09-08T07:18:16;8.73;;;7.23;;
20142;SDS011;10509;46.476;7.134;2023-09-08T07:20:46;9.33;;;7.60;;
20142;SDS011;10509;46.476;7.134;2023-09-08T07:23:13;7.87;;;7.17;;
20142;SDS011;10509;46.476;7.134;2023-09-08T07:25:39;11.77;;;10.87;;
20142;SDS011;10509;46.476;7.134;2023-09-08T07:28:05;7.25;;;6.50;;
20142;SDS011;10509;46.476;7.134;2023-09-08T07:30:31;10.57;;;7.45;;
20142;SDS011;10509;46.476;7.134;2023-09-08T07:32:58;7.00;;;6.60;;
20142;SDS011;10509;46.476;7.134;2023-09-08T07:35:24;9.85;;;7.57;;
20142;SDS011;10509;46.476;7.134;2023-09-08T07:37:50;6.80;;;6.22;;
20142;SDS011;10509;46.476;7.134;2023-09-08T07:40:16;6.33;;;5.93;;
20142;SDS011;10509;46.476;7.134;2023-09-08T07:42:42;6.45;;;5.97;;
20142;SDS011;10509;46.476;7.134;2023-09-08T07:45:08;10.10;;;6.60;;
20142;SDS011;10509;46.476;7.134;2023-09-08T07:47:34;6.28;;;5.88;;
20142;SDS011;10509;46.476;7.134;2023-09-08T07:50:17;6.57;;;5.35;;
20142;SDS011;10509;46.476;7.134;2023-09-08T07:52:44;6.70;;;6.10;;
20142;SDS011;10509;46.476;7.134;2023-09-08T07:55:10;5.95;;;5.50;;
20142;SDS011;10509;46.476;7.134;2023-09-08T07:57:36;6.47;;;5.97;;
20142;SDS011;10509;46.476;7.134;2023-09-08T08:00:02;5.80;;;5.28;;
20142;SDS011;10509;46.476;7.134;2023-09-08T08:02:29;6.32;;;5.80;;
20142;SDS011;10509;46.476;7.134;2023-09-08T08:04:56;5.88;;;5.47;;
20142;SDS011;10509;46.476;7.134;2023-09-08T08:07:22;6.30;;;5.90;;
20142;SDS011;10509;46.476;7.134;2023-09-08T08:09:48;5.43;;;5.10;;
20142;SDS011;10509;46.476;7.134;2023-09-08T08:12:14;6.88;;;5.57;;
20142;SDS011;10509;46.476;7.134;2023-09-08T08:14:40;5.55;;;5.07;;
20142;SDS011;10509;46.476;7.134;2023-09-08T08:17:06;6.38;;;5.75;;
20142;SDS011;10509;46.476;7.134;2023-09-08T08:19:32;5.85;;;5.45;;
20142;SDS011;10509;46.476;7.134;2023-09-08T08:21:58;5.13;;;4.82;;
20142;SDS011;10509;46.476;7.134;2023-09-08T08:24:24;5.80;;;5.30;;
20142;SDS011;10509;46.476;7.134;2023-09-08T08:26:50;5.70;;;5.20;;
20142;SDS011;10509;46.476;7.134;2023-09-08T08:29:17;5.90;;;5.43;;
20142;SDS011;10509;46.476;7.134;2023-09-08T08:31:43;5.50;;;5.10;;
20142;SDS011;10509;46.476;7.134;2023-09-08T08:34:09;5.43;;;5.03;;
20142;SDS011;10509;46.476;7.134;2023-09-08T08:36:35;5.80;;;5.40;;
20142;SDS011;10509;46.476;7.134;2023-09-08T08:39:01;6.43;;;5.15;;
20142;SDS011;10509;46.476;7.134;2023-09-08T08:41:28;6.13;;;5.63;;
20142;SDS011;10509;46.476;7.134;2023-09-08T08:43:54;5.50;;;5.10;;
20142;SDS011;10509;46.476;7.134;2023-09-08T08:46:21;5.55;;;5.22;;
20142;SDS011;10509;46.476;7.134;2023-09-08T08:48:48;5.63;;;5.13;;
20142;SDS011;10509;46.476;7.134;2023-09-08T08:51:14;8.75;;;4.95;;
20142;SDS011;10509;46.476;7.134;2023-09-08T08:53:42;7.18;;;5.57;;
20142;SDS011;10509;46.476;7.134;2023-09-08T08:56:08;4.65;;;4.35;;
20142;SDS011;10509;46.476;7.134;2023-09-08T08:58:38;5.22;;;4.82;;
20142;SDS011;10509;46.476;7.134;2023-09-08T09:01:05;10.68;;;6.18;;
20142;SDS011;10509;46.476;7.134;2023-09-08T09:03:32;5.25;;;4.85;;
20142;SDS011;10509;46.476;7.134;2023-09-08T09:05:59;5.38;;;4.90;;
20142;SDS011;10509;46.476;7.134;2023-09-08T09:08:25;7.15;;;5.18;;
20142;SDS011;10509;46.476;7.134;2023-09-08T09:10:52;6.47;;;4.70;;
20142;SDS011;10509;46.476;7.134;2023-09-08T09:13:19;4.97;;;4.63;;
20142;SDS011;10509;46.476;7.134;2023-09-08T09:15:45;5.03;;;4.63;;
20142;SDS011;10509;46.476;7.134;2023-09-08T09:18:11;5.70;;;4.50;;
20142;SDS011;10509;46.476;7.134;2023-09-08T09:20:38;4.90;;;4.60;;
20142;SDS011;10509;46.476;7.134;2023-09-08T09:23:06;7.60;;;6.15;;
20142;SDS011;10509;46.476;7.134;2023-09-08T09:25:32;14.02;;;12.75;;
20142;SDS011;10509;46.476;7.134;2023-09-08T09:27:58;7.78;;;7.05;;
20142;SDS011;10509;46.476;7.134;2023-09-08T09:30:25;6.32;;;5.88;;
20142;SDS011;10509;46.476;7.134;2023-09-08T09:33:01;18.25;;;16.80;;
20142;SDS011;10509;46.476;7.134;2023-09-08T09:35:40;17.80;;;16.35;;
20142;SDS011;10509;46.476;7.134;2023-09-08T09:38:06;10.52;;;9.63;;
20142;SDS011;10509;46.476;7.134;2023-09-08T09:40:33;4.85;;;4.53;;
20142;SDS011;10509;46.476;7.134;2023-09-08T09:42:59;5.57;;;5.03;;
20142;SDS011;10509;46.476;7.134;2023-09-08T09:45:25;4.78;;;4.40;;
20142;SDS011;10509;46.476;7.134;2023-09-08T09:47:51;5.55;;;4.93;;
20142;SDS011;10509;46.476;7.134;2023-09-08T09:53:15;4.43;;;4.05;;
20142;SDS011;10509;46.476;7.134;2023-09-08T09:55:45;4.93;;;4.47;;
20142;SDS011;10509;46.476;7.134;2023-09-08T09:58:11;4.85;;;4.50;;
20142;SDS011;10509;46.476;7.134;2023-09-08T10:00:38;4.35;;;4.05;;
20142;SDS011;10509;46.476;7.134;2023-09-08T10:03:12;5.22;;;4.68;;
20142;SDS011;10509;46.476;7.134;2023-09-08T10:05:39;6.53;;;4.13;;
20142;SDS011;10509;46.476;7.134;2023-09-08T10:08:05;7.07;;;4.50;;
20142;SDS011;10509;46.476;7.134;2023-09-08T10:10:32;4.45;;;4.05;;
20142;SDS011;10509;46.476;7.134;2023-09-08T10:13:01;5.80;;;4.50;;
20142;SDS011;10509;46.476;7.134;2023-09-08T10:15:28;4.45;;;4.05;;
20142;SDS011;10509;46.476;7.134;2023-09-08T10:17:57;7.65;;;4.70;;
20142;SDS011;10509;46.476;7.134;2023-09-08T10:20:25;4.35;;;4.05;;
20142;SDS011;10509;46.476;7.134;2023-09-08T10:22:56;6.55;;;4.15;;
20142;SDS011;10509;46.476;7.134;2023-09-08T10:25:24;4.55;;;4.25;;
20142;SDS011;10509;46.476;7.134;2023-09-08T10:27:54;4.57;;;4.18;;
20142;SDS011;10509;46.476;7.134;2023-09-08T10:30:21;4.72;;;4.32;;
20142;SDS011;10509;46.476;7.134;2023-09-08T10:32:48;4.45;;;4.03;;
20142;SDS011;10509;46.476;7.134;2023-09-08T10:35:15;5.40;;;4.50;;
20142;SDS011;10509;46.476;7.134;2023-09-08T10:37:42;4.65;;;4.32;;
20142;SDS011;10509;46.476;7.134;2023-09-08T10:40:24;5.00;;;4.50;;
20142;SDS011;10509;46.476;7.134;2023-09-08T10:43:11;5.68;;;4.20;;
20142;SDS011;10509;46.476;7.134;2023-09-08T10:45:37;4.70;;;4.30;;
20142;SDS011;10509;46.476;7.134;2023-09-08T10:48:06;4.70;;;4.30;;
20142;SDS011;10509;46.476;7.134;2023-09-08T10:50:33;9.23;;;4.60;;
20142;SDS011;10509;46.476;7.134;2023-09-08T10:55:36;4.70;;;4.03;;
20142;SDS011;10509;46.476;7.134;2023-09-08T10:58:03;4.60;;;4.20;;
20142;SDS011;10509;46.476;7.134;2023-09-08T11:00:29;4.68;;;4.18;;
20142;SDS011;10509;46.476;7.134;2023-09-08T11:03:08;4.30;;;3.90;;
20142;SDS011;10509;46.476;7.134;2023-09-08T11:05:34;4.20;;;3.85;;
20142;SDS011;10509;46.476;7.134;2023-09-08T11:08:00;5.30;;;4.90;;
20142;SDS011;10509;46.476;7.134;2023-09-08T11:10:26;5.80;;;3.97;;
20142;SDS011;10509;46.476;7.134;2023-09-08T11:12:54;5.38;;;3.70;;
20142;SDS011;10509;46.476;7.134;2023-09-08T11:15:20;4.05;;;3.75;;
20142;SDS011;10509;46.476;7.134;2023-09-08T11:17:46;4.40;;;4.00;;
20142;SDS011;10509;46.476;7.134;2023-09-08T11:20:15;4.60;;;4.30;;
20142;SDS011;10509;46.476;7.134;2023-09-08T11:22:42;4.50;;;4.10;;
20142;SDS011;10509;46.476;7.134;2023-09-08T11:25:10;4.25;;;3.90;;
20142;SDS011;10509;46.476;7.134;2023-09-08T11:27:37;4.75;;;4.35;;
20142;SDS011;10509;46.476;7.134;2023-09-08T11:30:05;5.63;;;4.32;;
20142;SDS011;10509;46.476;7.134;2023-09-08T11:32:34;4.50;;;3.88;;
20142;SDS011;10509;46.476;7.134;2023-09-08T11:35:10;4.60;;;4.20;;
20142;SDS011;10509;46.476;7.134;2023-09-08T11:37:36;4.30;;;3.90;;
20142;SDS011;10509;46.476;7.134;2023-09-08T11:40:03;4.18;;;3.88;;
20142;SDS011;10509;46.476;7.134;2023-09-08T11:42:37;4.65;;;4.25;;
20142;SDS011;10509;46.476;7.134;2023-09-08T11:45:09;4.55;;;4.10;;
20142;SDS011;10509;46.476;7.134;2023-09-08T11:47:35;5.13;;;4.55;;
20142;SDS011;10509;46.476;7.134;2023-09-08T11:50:01;4.88;;;4.47;;
20142;SDS011;10509;46.476;7.134;2023-09-08T11:52:28;5.00;;;4.60;;
20142;SDS011;10509;46.476;7.134;2023-09-08T11:54:54;4.93;;;4.40;;
20142;SDS011;10509;46.476;7.134;2023-09-08T11:57:20;5.85;;;4.25;;
20142;SDS011;10509;46.476;7.134;2023-09-08T11:59:46;5.15;;;4.40;;
20142;SDS011;10509;46.476;7.134;2023-09-08T12:02:13;4.28;;;3.88;;
20142;SDS011;10509;46.476;7.134;2023-09-08T12:04:39;4.60;;;4.20;;
20142;SDS011;10509;46.476;7.134;2023-09-08T12:07:07;5.03;;;4.57;;
20142;SDS011;10509;46.476;7.134;2023-09-08T12:09:39;5.25;;;4.75;;
20142;SDS011;10509;46.476;7.134;2023-09-08T12:12:10;5.07;;;4.50;;
20142;SDS011;10509;46.476;7.134;2023-09-08T12:14:39;4.82;;;4.43;;
20142;SDS011;10509;46.476;7.134;2023-09-08T12:17:06;5.68;;;4.38;;
20142;SDS011;10509;46.476;7.134;2023-09-08T12:19:32;4.80;;;4.40;;
20142;SDS011;10509;46.476;7.134;2023-09-08T12:22:01;4.78;;;4.07;;
20142;SDS011;10509;46.476;7.134;2023-09-08T12:24:47;4.45;;;4.13;;
20142;SDS011;10509;46.476;7.134;2023-09-08T12:27:16;4.40;;;4.10;;
20142;SDS011;10509;46.476;7.134;2023-09-08T12:29:55;5.00;;;4.50;;
20142;SDS011;10509;46.476;7.134;2023-09-08T12:32:22;6.72;;;5.07;;
20142;SDS011;10509;46.476;7.134;2023-09-08T12:34:48;8.43;;;4.07;;
20142;SDS011;10509;46.476;7.134;2023-09-08T12:37:14;4.68;;;4.38;;
20142;SDS011;10509;46.476;7.134;2023-09-08T12:39:40;4.63;;;4.32;;
20142;SDS011;10509;46.476;7.134;2023-09-08T12:42:06;4.97;;;4.50;;
20142;SDS011;10509;46.476;7.134;2023-09-08T12:44:32;5.07;;;4.63;;
20142;SDS011;10509;46.476;7.134;2023-09-08T12:46:58;4.82;;;4.43;;
20142;SDS011;10509;46.476;7.134;2023-09-08T12:49:24;4.85;;;4.40;;
20142;SDS011;10509;46.476;7.134;2023-09-08T12:51:50;4.93;;;4.45;;
20142;SDS011;10509;46.476;7.134;2023-09-08T12:54:16;4.40;;;4.00;;
20142;SDS011;10509;46.476;7.134;2023-09-08T12:56:42;4.88;;;4.43;;
20142;SDS011;10509;46.476;7.134;2023-09-08T12:59:08;5.18;;;4.78;;
20142;SDS011;10509;46.476;7.134;2023-09-08T13:01:34;4.97;;;4.47;;
20142;SDS011;10509;46.476;7.134;2023-09-08T13:04:00;5.07;;;4.68;;
20142;SDS011;10509;46.476;7.134;2023-09-08T13:06:26;4.70;;;4.40;;
20142;SDS011;10509;46.476;7.134;2023-09-08T13:08:52;6.40;;;4.68;;
20142;SDS011;10509;46.476;7.134;2023-09-08T13:11:18;4.80;;;4.47;;
20142;SDS011;10509;46.476;7.134;2023-09-08T13:13:44;4.72;;;4.38;;
20142;SDS011;10509;46.476;7.134;2023-09-08T13:16:10;5.18;;;4.88;;
20142;SDS011;10509;46.476;7.134;2023-09-08T13:18:36;5.15;;;4.15;;
20142;SDS011;10509;46.476;7.134;2023-09-08T13:21:04;4.88;;;4.57;;
20142;SDS011;10509;46.476;7.134;2023-09-08T13:23:30;5.10;;;4.80;;
20142;SDS011;10509;46.476;7.134;2023-09-08T13:25:56;4.93;;;4.63;;
20142;SDS011;10509;46.476;7.134;2023-09-08T13:28:22;5.13;;;4.22;;
20142;SDS011;10509;46.476;7.134;2023-09-08T13:30:48;4.70;;;4.30;;
20142;SDS011;10509;46.476;7.134;2023-09-08T13:33:14;5.20;;;4.80;;
20142;SDS011;10509;46.476;7.134;2023-09-08T13:35:40;5.30;;;4.90;;
20142;SDS011;10509;46.476;7.134;2023-09-08T13:38:06;5.40;;;4.72;;
20142;SDS011;10509;46.476;7.134;2023-09-08T13:40:32;6.20;;;4.30;;
20142;SDS011;10509;46.476;7.134;2023-09-08T13:42:58;4.63;;;4.30;;
20142;SDS011;10509;46.476;7.134;2023-09-08T13:45:25;4.78;;;4.38;;
20142;SDS011;10509;46.476;7.134;2023-09-08T13:47:51;8.55;;;5.22;;
20142;SDS011;10509;46.476;7.134;2023-09-08T13:50:17;6.03;;;5.22;;
20142;SDS011;10509;46.476;7.134;2023-09-08T13:52:43;4.90;;;4.53;;
20142;SDS011;10509;46.476;7.134;2023-09-08T13:55:09;8.20;;;5.03;;
20142;SDS011;10509;46.476;7.134;2023-09-08T13:57:36;5.70;;;5.10;;
20142;SDS011;10509;46.476;7.134;2023-09-08T14:00:02;5.70;;;5.20;;
20142;SDS011;10509;46.476;7.134;2023-09-08T14:02:28;5.72;;;5.22;;
20142;SDS011;10509;46.476;7.134;2023-09-08T14:04:54;5.53;;;5.03;;
20142;SDS011;10509;46.476;7.134;2023-09-08T14:07:20;12.32;;;11.40;;
20142;SDS011;10509;46.476;7.134;2023-09-08T14:09:46;7.57;;;6.93;;
20142;SDS011;10509;46.476;7.134;2023-09-08T14:12:12;14.63;;;13.45;;
20142;SDS011;10509;46.476;7.134;2023-09-08T14:14:39;6.03;;;5.15;;
20142;SDS011;10509;46.476;7.134;2023-09-08T14:17:05;6.13;;;5.63;;
20142;SDS011;10509;46.476;7.134;2023-09-08T14:19:31;6.45;;;5.18;;
20142;SDS011;10509;46.476;7.134;2023-09-08T14:21:57;7.22;;;6.55;;
20142;SDS011;10509;46.476;7.134;2023-09-08T14:24:23;5.88;;;4.75;;
20142;SDS011;10509;46.476;7.134;2023-09-08T14:26:49;9.10;;;8.50;;
20142;SDS011;10509;46.476;7.134;2023-09-08T14:29:16;6.60;;;6.10;;
20142;SDS011;10509;46.476;7.134;2023-09-08T14:31:42;5.60;;;4.78;;
20142;SDS011;10509;46.476;7.134;2023-09-08T14:34:08;7.80;;;4.55;;
20142;SDS011;10509;46.476;7.134;2023-09-08T14:36:35;5.38;;;4.97;;
20142;SDS011;10509;46.476;7.134;2023-09-08T14:39:01;5.80;;;5.30;;
20142;SDS011;10509;46.476;7.134;2023-09-08T14:41:28;6.50;;;4.70;;
20142;SDS011;10509;46.476;7.134;2023-09-08T14:43:54;5.43;;;4.63;;
20142;SDS011;10509;46.476;7.134;2023-09-08T14:46:20;5.25;;;4.90;;
20142;SDS011;10509;46.476;7.134;2023-09-08T14:48:46;4.85;;;4.50;;
20142;SDS011;10509;46.476;7.134;2023-09-08T14:51:12;5.55;;;5.03;;
20142;SDS011;10509;46.476;7.134;2023-09-08T14:53:38;5.28;;;4.70;;
20142;SDS011;10509;46.476;7.134;2023-09-08T14:56:04;4.88;;;4.57;;